Time,TemperatureF,DewpointF,PressureIn,WindDirection,WindDirectionDegrees,WindSpeedMPH,WindSpeedGustMPH,Humidity,HourlyPrecipIn,Conditions,Clouds,dailyrainin,SoftwareType,DateUTC
2013-04-21 00:03:00,36.0,26.0,30.27,NW,320,5.0,10.0,67,0.00,,,0.47,,2013-04-21 04:03:00,
2013-04-21 00:12:00,36.0,27.0,30.28,NE,50,4.0,7.0,69,0.00,,,0.30,,2013-04-21 04:12:00,
2013-04-21 00:23:00,36.0,27.0,30.28,NE,50,4.0,7.0,69,0.00,,,0.30,,2013-04-21 04:23:00,
2013-04-21 00:33:00,35.0,26.0,30.29,West,276,2.0,9.0,70,0.00,,,0.30,,2013-04-21 04:33:00,
2013-04-21 00:42:00,35.0,26.0,30.29,West,276,2.0,9.0,70,0.00,,,0.30,,2013-04-21 04:42:00,
2013-04-21 00:53:00,35.0,27.0,30.30,NW,324,3.0,16.0,71,0.00,,,0.30,,2013-04-21 04:53:00,
2013-04-21 01:02:00,34.0,26.0,30.31,NW,323,4.0,8.0,72,0.00,,,0.30,,2013-04-21 05:02:00,
2013-04-21 01:12:00,34.0,26.0,30.31,NW,323,4.0,8.0,72,0.00,,,0.30,,2013-04-21 05:12:00,
2013-04-21 01:22:00,34.0,26.0,30.32,NW,313,2.0,6.0,73,0.00,,,0.24,,2013-04-21 05:22:00,
2013-04-21 01:32:00,34.0,26.0,30.32,NW,326,2.0,6.0,73,0.00,,,0.24,,2013-04-21 05:32:00,
2013-04-21 01:42:00,34.0,26.0,30.32,NW,326,2.0,6.0,73,0.00,,,0.24,,2013-04-21 05:42:00,
2013-04-21 01:52:00,33.0,25.0,30.32,West,270,4.0,14.0,72,0.00,,,0.24,,2013-04-21 05:52:00,
2013-04-21 02:01:00,33.0,25.0,30.32,NW,322,2.0,8.0,71,0.00,,,0.24,,2013-04-21 06:01:00,
2013-04-21 02:12:00,33.0,25.0,30.32,NW,322,2.0,8.0,71,0.00,,,0.24,,2013-04-21 06:12:00,
2013-04-21 02:22:00,33.0,24.0,30.32,West,279,4.0,10.0,68,0.00,,,0.19,,2013-04-21 06:22:00,
2013-04-21 02:32:00,33.0,24.0,30.32,West,271,4.0,8.0,68,0.00,,,0.19,,2013-04-21 06:32:00,
2013-04-21 02:42:00,33.0,24.0,30.32,West,271,4.0,8.0,68,0.00,,,0.19,,2013-04-21 06:42:00,
2013-04-21 02:51:00,33.0,23.0,30.33,NNW,328,3.0,9.0,66,0.00,,,0.19,,2013-04-21 06:51:00,
2013-04-21 03:02:00,33.0,23.0,30.35,NNE,32,2.0,9.0,66,0.00,,,0.19,,2013-04-21 07:02:00,
2013-04-21 03:12:00,33.0,23.0,30.35,NNE,32,2.0,9.0,66,0.00,,,0.19,,2013-04-21 07:12:00,
2013-04-21 03:22:00,33.0,23.0,30.35,NNE,32,2.0,9.0,66,0.00,,,0.19,,2013-04-21 07:22:00,
2013-04-21 03:32:00,32.0,22.0,30.36,WSW,257,1.0,5.0,67,0.00,,,0.15,,2013-04-21 07:32:00,
2013-04-21 03:42:00,32.0,22.0,30.36,WSW,257,1.0,5.0,67,0.00,,,0.15,,2013-04-21 07:42:00,
2013-04-21 03:52:00,32.0,22.0,30.36,WNW,291,2.0,6.0,66,0.00,,,0.15,,2013-04-21 07:52:00,
2013-04-21 04:01:00,32.0,22.0,30.36,WNW,288,2.0,12.0,67,0.00,,,0.15,,2013-04-21 08:01:00,
2013-04-21 04:12:00,32.0,22.0,30.36,WNW,288,2.0,12.0,67,0.00,,,0.15,,2013-04-21 08:12:00,
2013-04-21 04:21:00,32.0,23.0,30.37,NNW,329,2.0,8.0,68,0.00,,,0.07,,2013-04-21 08:21:00,
2013-04-21 04:32:00,31.0,22.0,30.37,WNW,292,4.0,12.0,69,0.00,,,0.07,,2013-04-21 08:32:00,
2013-04-21 04:42:00,31.0,22.0,30.37,WNW,292,4.0,12.0,69,0.00,,,0.07,,2013-04-21 08:42:00,
2013-04-21 04:52:00,31.0,22.0,30.38,West,262,3.0,5.0,70,0.00,,,0.07,,2013-04-21 08:52:00,
2013-04-21 05:02:00,31.0,22.0,30.39,NW,325,2.0,5.0,70,0.00,,,0.07,,2013-04-21 09:02:00,
2013-04-21 05:12:00,31.0,22.0,30.39,NW,325,2.0,5.0,70,0.00,,,0.07,,2013-04-21 09:12:00,
2013-04-21 05:21:00,31.0,22.0,30.40,WNW,298,2.0,6.0,70,0.00,,,0.01,,2013-04-21 09:21:00,
2013-04-21 05:32:00,31.0,22.0,30.40,NNE,20,2.0,10.0,68,0.00,,,0.01,,2013-04-21 09:32:00,
2013-04-21 05:43:00,31.0,22.0,30.40,NNE,20,2.0,10.0,68,0.00,,,0.01,,2013-04-21 09:43:00,
2013-04-21 05:52:00,31.0,22.0,30.41,NE,52,1.0,9.0,68,0.00,,,0.01,,2013-04-21 09:52:00,
2013-04-21 06:03:00,30.0,21.0,30.42,NNW,332,2.0,8.0,68,0.00,,,0.01,,2013-04-21 10:03:00,
2013-04-21 06:12:00,30.0,21.0,30.42,NNW,332,2.0,8.0,68,0.00,,,0.01,,2013-04-21 10:12:00,
2013-04-21 06:22:00,30.0,20.0,30.44,NNW,327,3.0,12.0,66,0.00,,,0.00,,2013-04-21 10:22:00,
2013-04-21 06:32:00,30.0,20.0,30.45,NNE,14,2.0,7.0,67,0.00,,,0.00,,2013-04-21 10:32:00,
2013-04-21 06:42:00,30.0,20.0,30.45,NNE,14,2.0,7.0,67,0.00,,,0.00,,2013-04-21 10:42:00,
2013-04-21 06:52:00,30.0,20.0,30.45,WNW,298,3.0,8.0,66,0.00,,,0.00,,2013-04-21 10:52:00,
2013-04-21 07:03:00,30.0,19.0,30.47,NW,320,4.0,11.0,64,0.00,,,0.00,,2013-04-21 11:03:00,
2013-04-21 07:12:00,30.0,19.0,30.47,NW,320,4.0,11.0,64,0.00,,,0.00,,2013-04-21 11:12:00,
2013-04-21 07:22:00,30.0,18.0,30.47,WNW,289,4.0,10.0,61,0.00,,,0.00,,2013-04-21 11:22:00,
2013-04-21 07:34:00,31.0,19.0,30.49,NNW,339,3.0,16.0,60,0.00,,,0.00,,2013-04-21 11:34:00,
2013-04-21 07:42:00,31.0,19.0,30.49,NNW,339,3.0,16.0,60,0.00,,,0.00,,2013-04-21 11:42:00,
2013-04-21 07:52:00,32.0,19.0,30.49,NW,309,3.0,8.0,59,0.00,,,0.00,,2013-04-21 11:52:00,
2013-04-21 08:03:00,32.0,19.0,30.50,WNW,297,2.0,10.0,58,0.00,,,0.00,,2013-04-21 12:03:00,
2013-04-21 08:12:00,32.0,19.0,30.50,WNW,297,2.0,10.0,58,0.00,,,0.00,,2013-04-21 12:12:00,
2013-04-21 08:22:00,33.0,19.0,30.51,NNE,26,5.0,17.0,55,0.00,,,0.00,,2013-04-21 12:22:00,
2013-04-21 08:32:00,33.0,19.0,30.52,WNW,285,4.0,11.0,57,0.00,,,0.00,,2013-04-21 12:32:00,
2013-04-21 08:42:00,33.0,19.0,30.52,WNW,285,4.0,11.0,57,0.00,,,0.00,,2013-04-21 12:42:00,
2013-04-21 08:52:00,33.0,19.0,30.52,NNW,338,5.0,9.0,57,0.00,,,0.00,,2013-04-21 12:52:00,
2013-04-21 09:01:00,34.0,20.0,30.53,West,278,4.0,14.0,57,0.00,,,0.00,,2013-04-21 13:01:00,
2013-04-21 09:12:00,34.0,20.0,30.53,West,278,4.0,14.0,57,0.00,,,0.00,,2013-04-21 13:12:00,
2013-04-21 09:22:00,35.0,21.0,30.53,NNE,23,2.0,7.0,56,0.00,,,0.00,,2013-04-21 13:22:00,
2013-04-21 09:32:00,35.0,20.0,30.53,NE,42,3.0,10.0,55,0.00,,,0.00,,2013-04-21 13:32:00,
2013-04-21 09:42:00,35.0,20.0,30.53,NE,42,3.0,10.0,55,0.00,,,0.00,,2013-04-21 13:42:00,
2013-04-21 09:52:00,36.0,21.0,30.54,WNW,295,3.0,9.0,53,0.00,,,0.00,,2013-04-21 13:52:00,
2013-04-21 10:02:00,36.0,21.0,30.54,WNW,295,2.0,8.0,54,0.00,,,0.00,,2013-04-21 14:02:00,
2013-04-21 10:11:00,36.0,21.0,30.54,WNW,295,2.0,8.0,54,0.00,,,0.00,,2013-04-21 14:11:00,
2013-04-21 10:21:00,37.0,21.0,30.54,West,259,2.0,7.0,53,0.00,,,0.00,,2013-04-21 14:21:00,
2013-04-21 10:32:00,38.0,21.0,30.54,NW,308,6.0,15.0,49,0.00,,,0.00,,2013-04-21 14:32:00,
2013-04-21 10:42:00,38.0,21.0,30.54,NW,308,6.0,15.0,49,0.00,,,0.00,,2013-04-21 14:42:00,
2013-04-21 10:52:00,38.0,21.0,30.55,NW,315,5.0,11.0,49,0.00,,,0.00,,2013-04-21 14:52:00,
2013-04-21 11:02:00,40.0,21.0,30.55,WNW,301,4.0,9.0,47,0.00,,,0.00,,2013-04-21 15:02:00,
2013-04-21 11:11:00,40.0,21.0,30.55,WNW,301,4.0,9.0,47,0.00,,,0.00,,2013-04-21 15:11:00,
2013-04-21 11:22:00,40.0,21.0,30.55,WNW,300,5.0,14.0,47,0.00,,,0.00,,2013-04-21 15:22:00,
2013-04-21 11:33:00,41.0,21.0,30.55,North,1,2.0,8.0,45,0.00,,,0.00,,2013-04-21 15:33:00,
2013-04-21 11:43:00,41.0,21.0,30.55,North,1,2.0,8.0,45,0.00,,,0.00,,2013-04-21 15:43:00,
2013-04-21 11:53:00,42.0,23.0,30.56,WNW,284,3.0,7.0,46,0.00,,,0.00,,2013-04-21 15:53:00,
2013-04-21 12:03:00,43.0,23.0,30.56,NW,309,3.0,11.0,45,0.00,,,0.00,,2013-04-21 16:03:00,
2013-04-21 12:12:00,43.0,23.0,30.56,NW,309,3.0,11.0,45,0.00,,,0.00,,2013-04-21 16:12:00,
2013-04-21 12:23:00,43.0,22.0,30.56,NNW,330,3.0,8.0,43,0.00,,,0.00,,2013-04-21 16:23:00,
2013-04-21 12:33:00,43.0,22.0,30.56,ENE,58,8.0,10.0,42,0.00,,,0.00,,2013-04-21 16:33:00,
2013-04-21 12:42:00,43.0,22.0,30.56,ENE,58,8.0,10.0,42,0.00,,,0.00,,2013-04-21 16:42:00,
2013-04-21 12:52:00,43.0,22.0,30.55,ENE,58,8.0,12.0,42,0.00,,,0.00,,2013-04-21 16:52:00,
2013-04-21 13:02:00,44.0,22.0,30.55,ENE,68,7.0,10.0,41,0.00,,,0.00,,2013-04-21 17:02:00,
2013-04-21 13:12:00,44.0,21.0,30.55,North,6,7.0,14.0,40,0.00,,,0.00,,2013-04-21 17:12:00,
2013-04-21 13:23:00,44.0,21.0,30.55,North,6,7.0,14.0,40,0.00,,,0.00,,2013-04-21 17:23:00,
2013-04-21 13:32:00,45.0,23.0,30.55,NE,34,7.0,12.0,41,0.00,,,0.00,,2013-04-21 17:32:00,
2013-04-21 13:42:00,45.0,23.0,30.55,NE,34,7.0,12.0,41,0.00,,,0.00,,2013-04-21 17:42:00,
2013-04-21 13:52:00,46.0,22.0,30.54,ENE,74,6.0,11.0,39,0.00,,,0.00,,2013-04-21 17:52:00,
2013-04-21 14:02:00,46.0,22.0,30.54,ENE,61,6.0,15.0,38,0.00,,,0.00,,2013-04-21 18:02:00,
2013-04-21 14:11:00,46.0,22.0,30.54,ENE,61,6.0,15.0,38,0.00,,,0.00,,2013-04-21 18:11:00,
2013-04-21 14:22:00,46.0,24.0,30.54,NNE,30,2.0,11.0,41,0.00,,,0.00,,2013-04-21 18:22:00,
2013-04-21 14:33:00,47.0,22.0,30.55,East,88,3.0,11.0,37,0.00,,,0.00,,2013-04-21 18:33:00,
2013-04-21 14:42:00,47.0,22.0,30.55,East,88,3.0,11.0,37,0.00,,,0.00,,2013-04-21 18:42:00,
2013-04-21 14:52:00,48.0,24.0,30.54,West,276,3.0,7.0,38,0.00,,,0.00,,2013-04-21 18:52:00,
2013-04-21 15:02:00,49.0,22.0,30.54,ENE,75,4.0,7.0,34,0.00,,,0.00,,2013-04-21 19:02:00,
2013-04-21 15:12:00,49.0,22.0,30.54,ENE,75,4.0,7.0,34,0.00,,,0.00,,2013-04-21 19:12:00,
2013-04-21 15:22:00,48.0,24.0,30.54,NE,44,2.0,9.0,38,0.00,,,0.00,,2013-04-21 19:22:00,
2013-04-21 15:32:00,49.0,23.0,30.54,WNW,288,2.0,7.0,36,0.00,,,0.00,,2013-04-21 19:32:00,
2013-04-21 15:42:00,49.0,23.0,30.54,WNW,288,2.0,7.0,36,0.00,,,0.00,,2013-04-21 19:42:00,
2013-04-21 15:52:00,49.0,23.0,30.54,NE,41,5.0,12.0,35,0.00,,,0.00,,2013-04-21 19:52:00,
2013-04-21 16:02:00,50.0,25.0,30.53,SE,132,2.0,6.0,37,0.00,,,0.00,,2013-04-21 20:02:00,
2013-04-21 16:11:00,50.0,25.0,30.53,SE,132,2.0,6.0,37,0.00,,,0.00,,2013-04-21 20:11:00,
2013-04-21 16:22:00,50.0,22.0,30.53,NE,36,7.0,11.0,33,0.00,,,0.00,,2013-04-21 20:22:00,
2013-04-21 16:32:00,50.0,22.0,30.53,NNE,26,2.0,6.0,33,0.00,,,0.00,,2013-04-21 20:32:00,
2013-04-21 16:42:00,50.0,22.0,30.53,NNE,26,2.0,6.0,33,0.00,,,0.00,,2013-04-21 20:42:00,
2013-04-21 16:52:00,51.0,23.0,30.53,WNW,302,3.0,8.0,33,0.00,,,0.00,,2013-04-21 20:52:00,
2013-04-21 17:02:00,51.0,24.0,30.53,WSW,257,1.0,6.0,34,0.00,,,0.00,,2013-04-21 21:02:00,
2013-04-21 17:12:00,50.0,22.0,30.53,NE,56,6.0,8.0,33,0.00,,,0.00,,2013-04-21 21:12:00,
2013-04-21 17:22:00,50.0,22.0,30.53,NE,56,6.0,8.0,33,0.00,,,0.00,,2013-04-21 21:22:00,
2013-04-21 17:33:00,51.0,22.0,30.53,NNE,16,1.0,9.0,32,0.00,,,0.00,,2013-04-21 21:33:00,
2013-04-21 17:43:00,51.0,22.0,30.53,NNE,16,1.0,9.0,32,0.00,,,0.00,,2013-04-21 21:43:00,
2013-04-21 17:53:00,51.0,21.0,30.54,North,349,4.0,6.0,31,0.00,,,0.00,,2013-04-21 21:53:00,
2013-04-21 18:03:00,52.0,22.0,30.54,NW,308,2.0,5.0,30,0.00,,,0.00,,2013-04-21 22:03:00,
2013-04-21 18:12:00,52.0,22.0,30.54,NW,308,2.0,5.0,30,0.00,,,0.00,,2013-04-21 22:12:00,
2013-04-21 18:22:00,51.0,22.0,30.54,NNE,32,4.0,8.0,32,0.00,,,0.00,,2013-04-21 22:22:00,
2013-04-21 18:33:00,51.0,23.0,30.55,NNW,335,0.0,8.0,33,0.00,,,0.00,,2013-04-21 22:33:00,
2013-04-21 18:43:00,51.0,23.0,30.55,NNW,335,0.0,8.0,33,0.00,,,0.00,,2013-04-21 22:43:00,
2013-04-21 18:52:00,51.0,22.0,30.55,NNW,330,2.0,5.0,32,0.00,,,0.00,,2013-04-21 22:52:00,
2013-04-21 19:02:00,50.0,25.0,30.55,SW,229,2.0,6.0,37,0.00,,,0.00,,2013-04-21 23:02:00,
2013-04-21 19:12:00,50.0,25.0,30.55,SW,229,2.0,6.0,37,0.00,,,0.00,,2013-04-21 23:12:00,
2013-04-21 19:22:00,50.0,25.0,30.56,ENE,75,1.0,4.0,38,0.00,,,0.00,,2013-04-21 23:22:00,
2013-04-21 19:32:00,49.0,25.0,30.57,NE,49,3.0,5.0,38,0.00,,,0.00,,2013-04-21 23:32:00,
2013-04-21 19:42:00,49.0,25.0,30.57,NE,49,3.0,5.0,38,0.00,,,0.00,,2013-04-21 23:42:00,
2013-04-21 19:52:00,49.0,26.0,30.57,East,90,1.0,4.0,41,0.00,,,0.00,,2013-04-21 23:52:00,
2013-04-21 20:01:00,50.0,28.0,30.58,ESE,110,0.0,2.0,43,0.00,,,0.00,,2013-04-22 00:01:00,
2013-04-21 20:12:00,50.0,28.0,30.58,ESE,110,0.0,2.0,43,0.00,,,0.00,,2013-04-22 00:12:00,
2013-04-21 20:22:00,50.0,34.0,30.58,ENE,76,0.0,2.0,53,0.00,,,0.00,,2013-04-22 00:22:00,
2013-04-21 20:32:00,47.0,26.0,30.59,ESE,110,1.0,2.0,44,0.00,,,0.00,,2013-04-22 00:32:00,
2013-04-21 20:42:00,47.0,26.0,30.59,ESE,110,1.0,2.0,44,0.00,,,0.00,,2013-04-22 00:42:00,
2013-04-21 20:51:00,46.0,26.0,30.59,East,90,1.0,2.0,46,0.00,,,0.00,,2013-04-22 00:51:00,
2013-04-21 21:01:00,47.0,27.0,30.59,East,79,0.0,2.0,45,0.00,,,0.00,,2013-04-22 01:01:00,
2013-04-21 21:12:00,47.0,27.0,30.59,East,79,0.0,2.0,45,0.00,,,0.00,,2013-04-22 01:12:00,
2013-04-21 21:22:00,50.0,32.0,30.60,ENE,76,0.0,1.0,50,0.00,,,0.00,,2013-04-22 01:22:00,
2013-04-21 21:32:00,46.0,26.0,30.61,ENE,73,0.0,1.0,46,0.00,,,0.00,,2013-04-22 01:32:00,
2013-04-21 21:42:00,46.0,26.0,30.61,ENE,73,0.0,1.0,46,0.00,,,0.00,,2013-04-22 01:42:00,
2013-04-21 21:52:00,52.0,39.0,30.61,ENE,75,1.0,1.0,62,0.00,,,0.00,,2013-04-22 01:52:00,
2013-04-21 22:02:00,53.0,31.0,30.62,ENE,75,0.0,1.0,43,0.00,,,0.00,,2013-04-22 02:02:00,
2013-04-21 22:11:00,53.0,31.0,30.62,ENE,75,0.0,1.0,43,0.00,,,0.00,,2013-04-22 02:11:00,
2013-04-21 22:22:00,47.0,29.0,30.62,ENE,75,0.0,1.0,50,0.00,,,0.00,,2013-04-22 02:22:00,
2013-04-21 22:32:00,46.0,29.0,30.62,ENE,75,0.0,1.0,52,0.00,,,0.00,,2013-04-22 02:32:00,
2013-04-21 22:42:00,46.0,29.0,30.62,ENE,75,0.0,1.0,52,0.00,,,0.00,,2013-04-22 02:42:00,
2013-04-21 22:52:00,42.0,25.0,30.62,ENE,75,0.0,1.0,50,0.00,,,0.00,,2013-04-22 02:52:00,
2013-04-21 23:02:00,40.0,28.0,30.62,ENE,75,0.0,0.0,61,0.00,,,0.00,,2013-04-22 03:02:00,
2013-04-21 23:11:00,40.0,28.0,30.62,ENE,75,0.0,0.0,61,0.00,,,0.00,,2013-04-22 03:11:00,
2013-04-21 23:22:00,40.0,23.0,30.62,ENE,77,1.0,2.0,51,0.00,,,0.00,,2013-04-22 03:22:00,
2013-04-21 23:33:00,41.0,24.0,30.62,ESE,106,1.0,3.0,50,0.00,,,0.00,,2013-04-22 03:33:00,
2013-04-21 23:43:00,41.0,24.0,30.62,ESE,106,1.0,3.0,50,0.00,,,0.00,,2013-04-22 03:43:00,
2013-04-21 23:52:00,40.0,26.0,30.63,ENE,78,0.0,1.0,57,0.00,,,0.00,,2013-04-22 03:52:00,